createdAt,value
2019-04-03T00:00:36.509Z,54.10
2019-04-03T00:03:05.925Z,52.90
2019-04-03T00:05:35.261Z,52.40
2019-04-03T00:08:06.086Z,51.90
2019-04-03T00:10:32.960Z,52.00
2019-04-03T00:13:00.632Z,52.50
2019-04-03T00:15:28.328Z,52.30
2019-04-03T00:17:56.000Z,52.40
2019-04-03T00:20:23.734Z,52.80
2019-04-03T00:22:51.913Z,52.60
2019-04-03T00:25:20.606Z,52.00
2019-04-03T00:27:52.007Z,52.20
2019-04-03T00:30:21.874Z,51.90
2019-04-03T00:32:49.548Z,51.90
2019-04-03T00:35:17.410Z,51.50
2019-04-03T00:37:45.188Z,51.10
2019-04-03T00:40:13.129Z,50.90
2019-04-03T00:42:40.859Z,50.80
2019-04-03T00:45:08.791Z,50.70
2019-04-03T00:47:36.706Z,50.40
2019-04-03T00:50:04.789Z,50.30
2019-04-03T00:52:33.197Z,50.10
2019-04-03T00:55:01.129Z,50.50
2019-04-03T00:57:30.397Z,51.10
2019-04-03T00:59:58.317Z,51.10
2019-04-03T01:02:27.823Z,51.10
2019-04-03T01:04:58.088Z,51.20
2019-04-03T01:07:25.114Z,51.00
2019-04-03T01:09:52.877Z,51.10
2019-04-03T01:12:20.624Z,50.90
2019-04-03T01:14:48.476Z,50.80
2019-04-03T01:17:16.173Z,50.90
2019-04-03T01:19:43.834Z,51.40
2019-04-03T01:22:11.719Z,52.00
2019-04-03T01:24:39.454Z,51.80
2019-04-03T01:27:07.205Z,53.10
2019-04-03T01:29:34.870Z,55.40
2019-04-03T01:32:04.770Z,54.10
2019-04-03T01:34:32.578Z,54.50
2019-04-03T01:37:00.310Z,56.20
2019-04-03T01:39:27.973Z,55.60
2019-04-03T01:41:55.729Z,56.60
2019-04-03T01:44:24.700Z,57.60
2019-04-03T01:46:53.046Z,58.00
2019-04-03T01:49:23.241Z,58.90
2019-04-03T01:51:52.219Z,58.90
2019-04-03T01:54:19.959Z,58.80
2019-04-03T01:56:48.001Z,59.20
2019-04-03T01:59:15.708Z,58.70
2019-04-03T02:01:43.507Z,59.00
2019-04-03T02:04:13.020Z,58.60
2019-04-03T02:06:43.110Z,58.30
2019-04-03T02:09:10.552Z,58.70
2019-04-03T02:11:38.503Z,58.70
2019-04-03T02:14:06.324Z,58.40
2019-04-03T02:16:34.000Z,58.50
2019-04-03T02:19:01.738Z,58.40
2019-04-03T02:21:29.733Z,58.50
2019-04-03T02:23:57.540Z,58.20
2019-04-03T02:26:25.197Z,58.80
2019-04-03T02:28:53.039Z,59.20
2019-04-03T02:31:21.092Z,59.80
2019-04-03T02:33:48.950Z,60.00
2019-04-03T02:36:16.913Z,60.20
2019-04-03T02:38:44.854Z,60.00
2019-04-03T02:41:12.518Z,60.40
2019-04-03T02:43:40.251Z,60.00
2019-04-03T02:46:08.110Z,60.30
2019-04-03T02:48:38.346Z,61.20
2019-04-03T02:51:05.931Z,61.10
2019-04-03T02:53:33.772Z,61.90
2019-04-03T02:56:01.501Z,62.80
2019-04-03T02:58:29.266Z,62.80
2019-04-03T03:00:56.948Z,63.20
2019-04-03T03:03:24.788Z,64.30
2019-04-03T03:05:52.460Z,65.10
2019-04-03T03:08:22.743Z,65.60
2019-04-03T03:10:51.704Z,65.60
2019-04-03T03:13:21.731Z,66.80
2019-04-03T03:15:49.853Z,67.70
2019-04-03T03:18:18.185Z,67.50
2019-04-03T03:20:47.381Z,69.40
2019-04-03T03:23:15.262Z,70.90
2019-04-03T03:25:44.973Z,70.50
2019-04-03T03:28:14.867Z,70.50
2019-04-03T03:30:54.738Z,71.00
2019-04-03T03:33:30.157Z,71.60
2019-04-03T03:35:47.698Z,71.70
2019-04-03T03:38:16.127Z,72.60
2019-04-03T03:40:47.263Z,73.10
2019-04-03T03:43:15.570Z,73.70
2019-04-03T03:45:43.763Z,72.90
2019-04-03T03:48:12.057Z,73.80
2019-04-03T03:50:41.277Z,74.10
2019-04-03T03:53:11.504Z,74.20
2019-04-03T03:55:39.950Z,75.20
2019-04-03T03:58:12.543Z,75.20
2019-04-03T04:00:39.328Z,75.50
2019-04-03T04:03:10.135Z,75.90
2019-04-03T04:05:38.526Z,77.10
2019-04-03T04:08:09.364Z,78.40
2019-04-03T04:10:37.445Z,79.00
2019-04-03T04:13:06.391Z,79.00
2019-04-03T04:15:34.502Z,78.50
2019-04-03T04:18:02.846Z,79.90
2019-04-03T04:20:30.732Z,79.70
2019-04-03T04:22:58.977Z,81.00
2019-04-03T04:25:29.760Z,80.10
2019-04-03T04:27:58.666Z,80.40
2019-04-03T04:30:26.242Z,80.70
2019-04-03T04:32:54.817Z,81.00
2019-04-03T04:35:22.490Z,81.30
2019-04-03T04:37:50.257Z,81.50
2019-04-03T04:40:17.961Z,81.60
2019-04-03T04:42:45.704Z,81.90
2019-04-03T04:45:13.401Z,83.00
2019-04-03T04:47:41.231Z,81.70
2019-04-03T04:50:09.115Z,81.70
2019-04-03T04:52:36.951Z,82.00
2019-04-03T04:55:04.808Z,82.30
2019-04-03T04:57:32.934Z,82.60
2019-04-03T05:00:00.777Z,83.00
2019-04-03T05:02:30.169Z,83.80
2019-04-03T05:04:58.057Z,84.50
2019-04-03T05:07:25.972Z,85.10
2019-04-03T05:09:53.753Z,84.80
2019-04-03T05:12:21.792Z,85.80
2019-04-03T05:14:49.851Z,84.30
2019-04-03T05:17:17.522Z,83.60
2019-04-03T05:19:46.706Z,83.90
2019-04-03T05:22:15.069Z,83.40
2019-04-03T05:24:42.969Z,82.80
2019-04-03T05:27:10.717Z,82.20
2019-04-03T05:29:38.462Z,81.90
2019-04-03T05:32:06.525Z,81.80
2019-04-03T05:34:35.791Z,81.70
2019-04-03T05:37:03.498Z,81.40
2019-04-03T05:39:31.224Z,81.50
2019-04-03T05:41:59.773Z,81.30
2019-04-03T05:44:27.980Z,80.90
2019-04-03T05:46:55.672Z,80.80
2019-04-03T05:49:23.908Z,81.00
2019-04-03T05:51:51.905Z,81.20
2019-04-03T05:54:19.671Z,80.90
2019-04-03T05:56:47.351Z,81.50
2019-04-03T05:59:15.341Z,81.00
2019-04-03T06:01:45.866Z,81.50
2019-04-03T06:04:12.737Z,82.70
2019-04-03T06:06:40.475Z,82.50
2019-04-03T06:09:08.190Z,82.00
2019-04-03T06:11:35.925Z,82.20
2019-04-03T06:14:03.590Z,83.70
2019-04-03T06:16:31.341Z,85.30
2019-04-03T06:18:59.711Z,86.30
2019-04-03T06:21:27.988Z,86.70
2019-04-03T06:23:55.822Z,86.70
2019-04-03T06:26:23.569Z,86.70
2019-04-03T06:28:51.275Z,86.50
2019-04-03T06:31:19.061Z,86.80
2019-04-03T06:33:47.718Z,86.00
2019-04-03T06:36:17.188Z,86.80
2019-04-03T06:38:45.174Z,86.10
2019-04-03T06:41:12.922Z,86.00
2019-04-03T06:43:40.625Z,85.80
2019-04-03T06:46:08.431Z,85.70
2019-04-03T06:48:37.133Z,86.00
2019-04-03T06:51:04.997Z,86.30
2019-04-03T06:53:32.682Z,86.40
2019-04-03T06:56:00.524Z,86.90
2019-04-03T06:58:37.310Z,86.70
2019-04-03T07:00:57.878Z,86.60
2019-04-03T07:03:25.860Z,87.60
2019-04-03T07:05:53.758Z,87.80
2019-04-03T07:08:30.246Z,87.40
2019-04-03T07:10:55.012Z,87.70
2019-04-03T07:13:21.060Z,87.30
2019-04-03T07:15:49.174Z,87.80
2019-04-03T07:18:16.960Z,87.20
2019-04-03T07:20:44.705Z,87.50
2019-04-03T07:23:12.647Z,87.70
2019-04-03T07:25:41.092Z,87.90
2019-04-03T07:28:09.508Z,87.90
2019-04-03T07:30:37.373Z,87.50
2019-04-03T07:33:06.285Z,87.30
2019-04-03T07:35:34.152Z,88.30
2019-04-03T07:38:01.926Z,88.10
2019-04-03T07:40:29.892Z,88.40
2019-04-03T07:42:57.649Z,87.60
2019-04-03T07:45:25.342Z,85.90
2019-04-03T07:47:53.465Z,85.80
2019-04-03T07:50:21.365Z,86.80
2019-04-03T07:52:49.141Z,85.40
2019-04-03T07:55:16.951Z,84.50
2019-04-03T07:57:44.711Z,85.40
2019-04-03T08:00:12.773Z,83.60
2019-04-03T08:02:47.356Z,84.30
2019-04-03T08:05:12.205Z,83.80
2019-04-03T08:07:39.973Z,83.30
2019-04-03T08:10:08.041Z,81.10
2019-04-03T08:12:36.043Z,82.10
2019-04-03T08:15:05.294Z,82.80
2019-04-03T08:17:34.708Z,82.40
2019-04-03T08:20:02.784Z,81.40
2019-04-03T08:22:33.350Z,80.10
2019-04-03T08:25:02.111Z,80.00
2019-04-03T08:27:31.530Z,81.40
2019-04-03T08:29:59.287Z,78.20
2019-04-03T08:32:26.949Z,77.70
2019-04-03T08:34:54.836Z,77.40
2019-04-03T08:37:29.796Z,76.70
2019-04-03T08:39:52.308Z,75.20
2019-04-03T08:42:20.032Z,75.40
2019-04-03T08:44:47.990Z,75.30
2019-04-03T08:47:16.086Z,75.70
2019-04-03T08:49:44.224Z,76.00
2019-04-03T08:52:14.388Z,75.50
2019-04-03T08:54:42.695Z,75.90
2019-04-03T08:57:10.590Z,77.00
2019-04-03T08:59:38.409Z,76.90
2019-04-03T09:02:08.207Z,75.30
2019-04-03T09:04:35.633Z,75.90
2019-04-03T09:07:03.423Z,75.50
2019-04-03T09:09:34.127Z,75.70
2019-04-03T09:12:01.296Z,75.00
2019-04-03T09:14:29.257Z,75.10
2019-04-03T09:16:57.090Z,75.70
2019-04-03T09:19:24.877Z,74.60
2019-04-03T09:21:52.702Z,75.40
2019-04-03T09:24:20.606Z,75.50
2019-04-03T09:26:48.567Z,74.70
2019-04-03T09:29:16.533Z,75.40
2019-04-03T09:31:44.402Z,76.30
2019-04-03T09:34:12.212Z,75.40
2019-04-03T09:36:40.068Z,73.10
2019-04-03T09:39:13.480Z,74.00
2019-04-03T09:41:40.946Z,74.30
2019-04-03T09:44:08.882Z,72.80
2019-04-03T09:46:36.666Z,72.70
2019-04-03T09:49:05.769Z,72.30
2019-04-03T09:51:33.872Z,72.70
2019-04-03T09:54:01.772Z,70.60
2019-04-03T09:56:29.950Z,70.00
2019-04-03T09:58:58.110Z,69.80
2019-04-03T10:01:26.419Z,71.10
2019-04-03T10:03:55.494Z,71.20
2019-04-03T10:06:24.234Z,71.00
2019-04-03T10:08:52.094Z,70.60
2019-04-03T10:11:20.833Z,69.00
2019-04-03T10:13:48.919Z,68.30
2019-04-03T10:16:16.882Z,68.20
2019-04-03T10:18:44.684Z,67.30
2019-04-03T10:21:12.544Z,68.60
2019-04-03T10:23:40.414Z,69.20
2019-04-03T10:26:09.486Z,68.70
2019-04-03T10:28:41.525Z,68.50
2019-04-03T10:31:08.157Z,67.80
2019-04-03T10:33:35.917Z,68.40
2019-04-03T10:36:03.725Z,68.10
2019-04-03T10:38:31.636Z,69.70
2019-04-03T10:40:59.827Z,69.20
2019-04-03T10:43:27.850Z,68.20
2019-04-03T10:45:55.751Z,66.40
2019-04-03T10:48:23.622Z,66.70
2019-04-03T10:50:51.597Z,65.70
2019-04-03T10:53:19.994Z,65.80
2019-04-03T10:55:48.486Z,64.50
2019-04-03T10:58:16.181Z,65.00
2019-04-03T11:00:43.969Z,64.70
2019-04-03T11:03:11.869Z,65.90
2019-04-03T11:05:39.509Z,62.90
2019-04-03T11:08:07.409Z,63.90
2019-04-03T11:10:35.305Z,61.20
2019-04-03T11:13:03.841Z,60.00
2019-04-03T11:15:31.937Z,59.40
2019-04-03T11:17:59.750Z,60.70
2019-04-03T11:20:27.719Z,59.70
2019-04-03T11:23:05.664Z,61.50
2019-04-03T11:25:25.242Z,61.30
2019-04-03T11:27:53.150Z,60.60
2019-04-03T11:30:24.134Z,59.40
2019-04-03T11:32:51.738Z,61.30
2019-04-03T11:35:21.746Z,61.10
2019-04-03T11:37:49.614Z,60.80
2019-04-03T11:40:18.796Z,61.20
2019-04-03T11:42:47.081Z,60.90
2019-04-03T11:45:17.092Z,58.80
2019-04-03T11:47:45.828Z,59.20
2019-04-03T11:50:14.887Z,59.30
2019-04-03T11:52:43.246Z,59.70
2019-04-03T11:55:11.685Z,59.40
2019-04-03T11:57:39.836Z,60.00
2019-04-03T12:00:13.375Z,60.90
2019-04-03T12:02:44.495Z,60.70
2019-04-03T12:05:16.175Z,69.30
2019-04-03T12:07:44.690Z,73.40
2019-04-03T12:10:12.693Z,75.40
2019-04-03T12:12:42.066Z,78.30
2019-04-03T12:15:10.970Z,79.80
2019-04-03T12:17:39.211Z,81.10
2019-04-03T12:20:09.389Z,82.30
2019-04-03T12:22:38.515Z,84.00
2019-04-03T12:25:07.155Z,84.90
2019-04-03T12:27:36.064Z,84.80
2019-04-03T12:30:06.114Z,86.40
2019-04-03T12:32:38.483Z,87.00
2019-04-03T12:35:04.933Z,87.20
2019-04-03T12:37:33.519Z,87.20
2019-04-03T12:40:01.571Z,87.50
2019-04-03T12:42:31.599Z,87.40
2019-04-03T12:44:59.793Z,87.50
2019-04-03T12:47:28.517Z,87.90
2019-04-03T12:49:56.619Z,87.30
2019-04-03T12:52:24.528Z,87.50
2019-04-03T12:54:53.750Z,87.80
2019-04-03T12:57:22.123Z,88.00
2019-04-03T12:59:50.104Z,88.10
2019-04-03T13:02:19.048Z,88.40
2019-04-03T13:04:48.095Z,89.10
2019-04-03T13:07:16.223Z,89.30
2019-04-03T13:09:44.386Z,89.50
2019-04-03T13:12:12.907Z,89.90
2019-04-03T13:14:40.808Z,88.40
2019-04-03T13:17:08.537Z,89.20
2019-04-03T13:19:36.517Z,88.40
2019-04-03T13:22:04.226Z,86.90
2019-04-03T13:24:32.006Z,85.70
2019-04-03T13:26:59.760Z,84.10
2019-04-03T13:29:27.592Z,82.80
2019-04-03T13:31:55.325Z,82.00
2019-04-03T13:34:23.309Z,83.70
2019-04-03T13:36:51.946Z,86.30
2019-04-03T13:39:20.153Z,84.60
2019-04-03T13:41:48.211Z,84.00
2019-04-03T13:44:16.598Z,84.00
2019-04-03T13:46:44.603Z,81.30
2019-04-03T13:49:12.768Z,80.90
2019-04-03T13:51:48.658Z,80.60
2019-04-03T13:54:27.168Z,80.80
2019-04-03T13:57:19.465Z,80.00
2019-04-03T13:59:49.722Z,80.50
2019-04-03T14:02:40.000Z,81.30
2019-04-03T14:05:15.412Z,81.50
2019-04-03T14:07:43.144Z,81.50
2019-04-03T14:10:11.113Z,81.90
2019-04-03T14:12:43.238Z,82.80
2019-04-03T14:15:09.127Z,81.70
2019-04-03T14:17:37.166Z,81.70
2019-04-03T14:20:09.849Z,82.40
2019-04-03T14:22:40.772Z,81.20
2019-04-03T14:25:18.973Z,82.70
2019-04-03T14:27:38.758Z,82.80
2019-04-03T14:30:36.414Z,82.30
2019-04-03T14:33:04.271Z,82.80
2019-04-03T14:35:48.749Z,83.60
2019-04-03T14:38:02.058Z,84.40
2019-04-03T14:40:30.213Z,85.10
2019-04-03T14:42:59.585Z,83.90
2019-04-03T14:45:27.886Z,83.20
2019-04-03T14:47:55.995Z,84.10
2019-04-03T14:50:24.702Z,83.70
2019-04-03T14:52:52.679Z,83.00
2019-04-03T14:55:22.568Z,82.50
2019-04-03T14:57:50.312Z,84.00
2019-04-03T15:00:30.039Z,83.60
2019-04-03T15:02:48.038Z,84.20
2019-04-03T15:05:15.803Z,84.70
2019-04-03T15:07:43.746Z,84.40
2019-04-03T15:10:13.337Z,84.10
2019-04-03T15:12:41.425Z,84.40
2019-04-03T15:15:09.717Z,85.50
2019-04-03T15:17:38.707Z,87.20
2019-04-03T15:20:09.368Z,87.50
2019-04-03T15:22:38.126Z,87.40
2019-04-03T15:25:07.423Z,88.10
2019-04-03T15:27:35.859Z,89.30
2019-04-03T15:30:06.902Z,89.90
2019-04-03T15:32:35.523Z,90.70
2019-04-03T15:35:04.187Z,90.60
2019-04-03T15:37:32.589Z,91.20
2019-04-03T15:40:01.363Z,91.40
2019-04-03T15:42:30.410Z,91.90
2019-04-03T15:44:58.199Z,91.70
2019-04-03T15:47:35.216Z,92.00
2019-04-03T15:49:58.361Z,92.10
2019-04-03T15:52:25.713Z,92.50
2019-04-03T15:54:54.238Z,92.40
2019-04-03T15:57:22.041Z,92.40
2019-04-03T15:59:52.053Z,92.10
2019-04-03T16:02:19.763Z,90.90
2019-04-03T16:04:47.809Z,91.30
2019-04-03T16:07:15.578Z,92.10
2019-04-03T16:09:43.798Z,93.00
2019-04-03T16:12:12.556Z,93.60
2019-04-03T16:14:40.924Z,94.30
2019-04-03T16:17:09.085Z,94.10
2019-04-03T16:19:36.855Z,94.60
2019-04-03T16:22:04.832Z,95.20
2019-04-03T16:24:32.810Z,96.00
2019-04-03T16:27:00.659Z,96.10
2019-04-03T16:29:30.246Z,96.60
2019-04-03T16:34:26.446Z,97.80
2019-04-03T16:36:54.414Z,98.40
2019-04-03T16:39:22.579Z,98.10
2019-04-03T16:41:50.865Z,98.40
2019-04-03T16:44:19.242Z,98.50
2019-04-03T16:46:47.315Z,98.50
2019-04-03T16:49:15.238Z,99.90
2019-04-03T16:54:12.665Z,98.70
2019-04-03T16:56:40.763Z,99.00
2019-04-03T16:59:08.632Z,98.90
2019-04-03T17:01:36.543Z,99.00
2019-04-03T17:04:04.583Z,98.90
2019-04-03T17:06:32.949Z,98.90
2019-04-03T17:09:00.653Z,98.60
2019-04-03T17:11:28.804Z,98.60
2019-04-03T17:13:56.877Z,98.80
2019-04-03T17:16:25.045Z,98.70
2019-04-03T17:18:52.832Z,99.20
2019-04-03T17:21:21.030Z,99.20
2019-04-03T17:23:49.020Z,99.50
2019-04-03T17:26:17.227Z,99.10
2019-04-03T17:28:45.607Z,99.00
2019-04-03T17:31:13.611Z,99.00
2019-04-03T17:33:41.628Z,98.80
2019-04-03T17:36:09.588Z,98.90
2019-04-03T17:38:37.403Z,99.00
2019-04-03T17:41:07.030Z,98.70
2019-04-03T17:43:34.965Z,98.60
2019-04-03T17:46:02.699Z,98.50
2019-04-03T17:48:30.600Z,98.50
2019-04-03T17:50:58.462Z,98.60
2019-04-03T17:53:26.440Z,98.70
2019-04-03T17:55:54.176Z,98.80
2019-04-03T17:58:22.033Z,98.70
2019-04-03T18:00:51.945Z,98.10
2019-04-03T18:03:20.025Z,98.30
2019-04-03T18:05:47.769Z,98.40
2019-04-03T18:08:15.818Z,98.30
2019-04-03T18:10:43.583Z,98.20
2019-04-03T18:13:11.432Z,98.40
2019-04-03T18:15:39.319Z,98.50
2019-04-03T18:20:34.918Z,97.80
2019-04-03T18:23:02.825Z,97.70
2019-04-03T18:25:30.599Z,97.50
2019-04-03T18:27:58.362Z,97.10
2019-04-03T18:30:26.364Z,97.00
2019-04-03T18:32:54.335Z,97.30
2019-04-03T18:35:22.093Z,97.00
2019-04-03T18:37:49.990Z,96.90
2019-04-03T18:40:17.840Z,96.90
2019-04-03T18:42:45.699Z,96.60
2019-04-03T18:45:24.551Z,96.10
2019-04-03T18:47:45.808Z,96.30
2019-04-03T18:50:14.019Z,96.70
2019-04-03T18:52:41.933Z,96.70
2019-04-03T18:55:09.942Z,96.80
2019-04-03T18:57:37.879Z,96.60
2019-04-03T19:00:06.791Z,96.10
2019-04-03T19:02:35.224Z,95.80
2019-04-03T19:05:04.245Z,96.10
2019-04-03T19:07:33.593Z,96.50
2019-04-03T19:10:07.437Z,96.20
2019-04-03T19:12:35.937Z,96.10
2019-04-03T19:15:03.416Z,95.90
2019-04-03T19:17:32.545Z,96.10
2019-04-03T19:20:10.271Z,96.00
2019-04-03T19:22:31.573Z,95.90
2019-04-03T19:24:59.367Z,95.70
2019-04-03T19:27:27.272Z,95.60
2019-04-03T19:29:55.043Z,95.60
2019-04-03T19:32:22.975Z,95.70
2019-04-03T19:34:52.408Z,95.60
2019-04-03T19:37:20.431Z,95.40
2019-04-03T19:39:48.277Z,95.10
2019-04-03T19:42:16.285Z,95.00
2019-04-03T19:44:44.047Z,95.00
2019-04-03T19:47:11.950Z,95.10
2019-04-03T19:49:40.286Z,95.10
2019-04-03T19:52:08.474Z,95.00
2019-04-03T19:54:55.796Z,94.70
2019-04-03T19:57:24.941Z,94.90
2019-04-03T19:59:53.600Z,94.90
2019-04-03T20:02:21.475Z,94.40
2019-04-03T20:04:49.238Z,94.40
2019-04-03T20:07:17.345Z,94.30
2019-04-03T20:09:45.138Z,94.00
2019-04-03T20:12:13.097Z,94.50
2019-04-03T20:14:43.777Z,94.90
2019-04-03T20:20:03.506Z,95.30
2019-04-03T20:22:32.893Z,95.10
2019-04-03T20:25:00.750Z,95.00
2019-04-03T20:27:28.817Z,95.10
2019-04-03T20:29:56.763Z,95.10
2019-04-03T20:32:24.537Z,95.10
2019-04-03T20:34:52.410Z,95.00
2019-04-03T20:37:20.417Z,94.80
2019-04-03T20:39:48.238Z,94.60
2019-04-03T20:42:15.992Z,94.60
2019-04-03T20:44:43.926Z,95.00
2019-04-03T20:47:11.695Z,94.90
2019-04-03T20:49:58.924Z,95.10
2019-04-03T20:52:26.612Z,95.00
2019-04-03T20:54:54.419Z,94.90
2019-04-03T20:57:22.224Z,94.80
2019-04-03T20:59:58.697Z,94.90
2019-04-03T21:02:19.762Z,94.90
2019-04-03T21:04:47.847Z,95.10
2019-04-03T21:07:15.664Z,95.10
2019-04-03T21:09:43.486Z,95.10
2019-04-03T21:12:11.194Z,94.90
2019-04-03T21:14:41.194Z,94.90
2019-04-03T21:17:08.906Z,95.00
2019-04-03T21:19:36.573Z,94.80
2019-04-03T21:22:04.401Z,94.90
2019-04-03T21:24:34.181Z,94.70
2019-04-03T21:27:02.042Z,94.90
2019-04-03T21:29:30.188Z,95.20
2019-04-03T21:31:57.955Z,95.00
2019-04-03T21:34:25.666Z,95.30
2019-04-03T21:36:53.540Z,95.10
2019-04-03T21:39:21.201Z,95.00
2019-04-03T21:41:49.017Z,94.80
2019-04-03T21:44:16.901Z,94.90
2019-04-03T21:46:44.702Z,94.90
2019-04-03T21:49:12.501Z,94.70
2019-04-03T21:51:40.376Z,94.50
2019-04-03T21:54:08.080Z,94.20
2019-04-03T21:56:35.879Z,94.00
2019-04-03T21:59:03.589Z,93.80
2019-04-03T22:01:31.386Z,93.50
2019-04-03T22:03:59.126Z,93.40
2019-04-03T22:09:01.063Z,93.20
2019-04-03T22:11:30.465Z,93.40
2019-04-03T22:13:58.253Z,93.20
2019-04-03T22:16:26.209Z,93.10
2019-04-03T22:18:54.827Z,93.00
2019-04-03T22:21:23.329Z,92.80
2019-04-03T22:23:51.097Z,92.60
2019-04-03T22:26:18.818Z,92.80
2019-04-03T22:28:46.596Z,92.70
2019-04-03T22:31:14.374Z,92.80
2019-04-03T22:33:42.117Z,92.90
2019-04-03T22:36:09.788Z,92.80
2019-04-03T22:38:37.648Z,92.90
2019-04-03T22:41:05.354Z,92.90
2019-04-03T22:43:33.127Z,93.00
2019-04-03T22:46:00.963Z,93.10
2019-04-03T22:48:28.753Z,93.20
2019-04-03T22:50:56.426Z,92.90
2019-04-03T22:53:24.197Z,92.70
2019-04-03T22:55:51.894Z,92.60
2019-04-03T22:58:21.507Z,92.50
2019-04-03T23:00:49.270Z,92.90
2019-04-03T23:03:17.128Z,92.90
2019-04-03T23:05:47.651Z,92.70
2019-04-03T23:08:14.554Z,92.80
2019-04-03T23:10:42.224Z,92.60
2019-04-03T23:13:09.968Z,92.40
2019-04-03T23:15:39.311Z,92.70
2019-04-03T23:18:07.280Z,92.90
2019-04-03T23:20:34.966Z,92.90
2019-04-03T23:23:02.745Z,92.80
2019-04-03T23:25:30.626Z,92.70
2019-04-03T23:27:58.370Z,92.60
2019-04-03T23:30:26.139Z,92.60
2019-04-03T23:32:53.822Z,92.80
2019-04-03T23:35:21.564Z,92.70
2019-04-03T23:37:49.293Z,92.60
2019-04-03T23:40:17.024Z,92.40
2019-04-03T23:42:44.742Z,92.40
2019-04-03T23:45:12.876Z,92.30
2019-04-03T23:47:41.290Z,92.20
2019-04-03T23:50:08.910Z,92.10
2019-04-03T23:52:36.869Z,92.10
2019-04-03T23:55:05.259Z,92.10
2019-04-03T23:57:33.512Z,92.00
